createdAt,value
2018-08-10T00:00:34.674Z,75.44
2018-08-10T00:01:34.690Z,74.67
2018-08-10T00:03:27.626Z,74.09
2018-08-10T00:04:27.626Z,73.42
2018-08-10T00:06:20.558Z,73.61
2018-08-10T00:07:20.561Z,73.80
2018-08-10T00:09:13.478Z,72.45
2018-08-10T00:10:13.508Z,72.65
2018-08-10T00:12:06.439Z,72.65
2018-08-10T00:13:06.439Z,72.17
2018-08-10T00:14:59.351Z,72.65
2018-08-10T00:15:59.373Z,72.84
2018-08-10T00:17:52.308Z,72.61
2018-08-10T00:18:52.310Z,72.80
2018-08-10T00:20:45.225Z,72.45
2018-08-10T00:21:45.257Z,72.90
2018-08-10T00:23:38.183Z,75.49
2018-08-10T00:24:38.187Z,76.17
2018-08-10T00:26:31.132Z,77.04
2018-08-10T00:27:31.136Z,77.61
2018-08-10T00:29:24.054Z,77.86
2018-08-10T00:30:24.080Z,77.96
2018-08-10T00:32:17.009Z,78.15
2018-08-10T00:33:17.022Z,78.25
2018-08-10T00:35:09.927Z,78.83
2018-08-10T00:36:09.947Z,79.50
2018-08-10T00:38:02.885Z,78.73
2018-08-10T00:39:02.881Z,77.96
2018-08-10T00:40:56.789Z,78.25
2018-08-10T00:41:56.817Z,77.96
2018-08-10T00:43:49.756Z,78.11
2018-08-10T00:44:49.757Z,77.44
2018-08-10T00:46:42.688Z,77.34
2018-08-10T00:47:42.688Z,77.53
2018-08-10T00:49:35.601Z,77.53
2018-08-10T00:50:35.624Z,76.86
2018-08-10T00:52:28.555Z,76.96
2018-08-10T00:53:28.559Z,76.96
2018-08-10T00:55:21.469Z,77.15
2018-08-10T00:56:21.493Z,77.15
2018-08-10T00:58:14.428Z,77.15
2018-08-10T00:59:14.439Z,77.44
2018-08-10T01:01:07.344Z,77.06
2018-08-10T01:02:07.368Z,76.77
2018-08-10T01:04:00.298Z,76.92
2018-08-10T01:05:00.300Z,76.96
2018-08-10T01:06:53.233Z,76.92
2018-08-10T01:07:53.236Z,76.19
2018-08-10T01:09:46.150Z,76.34
2018-08-10T01:10:46.169Z,76.54
2018-08-10T01:12:39.105Z,76.92
2018-08-10T01:13:39.169Z,76.48
2018-08-10T01:15:32.019Z,76.19
2018-08-10T01:16:32.041Z,76.06
2018-08-10T01:18:24.973Z,75.87
2018-08-10T01:19:25.059Z,75.38
2018-08-10T01:21:17.887Z,75.57
2018-08-10T01:22:17.909Z,75.48
2018-08-10T01:24:10.843Z,75.48
2018-08-10T01:25:10.842Z,75.10
2018-08-10T01:27:03.771Z,75.04
2018-08-10T01:28:03.776Z,74.94
2018-08-10T01:29:56.689Z,74.75
2018-08-10T01:30:56.717Z,74.75
2018-08-10T01:32:49.644Z,74.81
2018-08-10T01:33:49.729Z,75.62
2018-08-10T01:35:42.558Z,75.10
2018-08-10T01:36:42.576Z,75.96
2018-08-10T01:38:35.506Z,76.34
2018-08-10T01:39:35.511Z,76.54
2018-08-10T01:41:28.421Z,77.31
2018-08-10T01:42:28.441Z,76.64
2018-08-10T01:44:21.377Z,76.25
2018-08-10T01:45:21.384Z,76.44
2018-08-10T01:47:14.310Z,75.77
2018-08-10T01:48:14.347Z,75.48
2018-08-10T01:50:07.224Z,75.77
2018-08-10T01:51:07.246Z,75.96
2018-08-10T01:53:00.179Z,75.48
2018-08-10T01:54:00.181Z,75.38
2018-08-10T01:55:53.089Z,75.25
2018-08-10T01:56:53.111Z,75.45
2018-08-10T01:58:46.042Z,75.10
2018-08-10T01:59:46.044Z,75.25
2018-08-10T02:01:38.952Z,75.35
2018-08-10T02:02:38.978Z,74.68
2018-08-10T02:04:31.909Z,74.96
2018-08-10T02:05:31.909Z,74.77
2018-08-10T02:07:24.840Z,74.39
2018-08-10T02:08:24.846Z,74.48
2018-08-10T02:10:17.792Z,74.48
2018-08-10T02:11:17.772Z,74.39
2018-08-10T02:13:10.709Z,74.29
2018-08-10T02:14:10.712Z,74.77
2018-08-10T02:16:03.617Z,74.29
2018-08-10T02:17:03.725Z,74.48
2018-08-10T02:18:56.573Z,74.48
2018-08-10T02:19:56.678Z,74.33
2018-08-10T02:21:49.483Z,74.29
2018-08-10T02:22:49.530Z,74.19
2018-08-10T02:24:42.481Z,74.10
2018-08-10T02:25:42.486Z,73.81
2018-08-10T02:27:35.476Z,74.29
2018-08-10T02:28:35.370Z,74.19
2018-08-10T02:30:28.282Z,74.39
2018-08-10T02:31:28.304Z,74.48
2018-08-10T02:33:21.236Z,75.02
2018-08-10T02:34:21.236Z,75.06
2018-08-10T02:36:14.149Z,75.60
2018-08-10T02:37:14.174Z,75.50
2018-08-10T02:39:07.101Z,75.60
2018-08-10T02:40:07.101Z,75.50
2018-08-10T02:42:00.012Z,76.07
2018-08-10T02:43:00.036Z,76.17
2018-08-10T02:44:52.963Z,76.84
2018-08-10T02:45:52.965Z,76.17
2018-08-10T02:47:45.928Z,76.17
2018-08-10T02:48:45.933Z,76.07
2018-08-10T02:50:38.804Z,77.04
2018-08-10T02:51:38.841Z,77.13
2018-08-10T02:53:31.759Z,76.75
2018-08-10T02:54:31.760Z,76.94
2018-08-10T02:56:24.670Z,76.94
2018-08-10T02:57:24.693Z,77.61
2018-08-10T02:59:17.623Z,77.51
2018-08-10T03:00:17.625Z,77.51
2018-08-10T03:02:10.531Z,77.42
2018-08-10T03:03:10.578Z,77.04
2018-08-10T03:05:03.483Z,76.65
2018-08-10T03:06:03.530Z,76.56
2018-08-10T03:07:56.419Z,76.56
2018-08-10T03:08:56.427Z,76.37
2018-08-10T03:10:49.330Z,76.17
2018-08-10T03:11:49.352Z,76.27
2018-08-10T03:13:42.282Z,75.31
2018-08-10T03:14:42.283Z,75.70
2018-08-10T03:16:35.198Z,75.21
2018-08-10T03:17:35.216Z,75.31
2018-08-10T03:19:28.158Z,74.54
2018-08-10T03:20:28.150Z,74.44
2018-08-10T03:22:21.065Z,74.16
2018-08-10T03:23:21.085Z,73.68
2018-08-10T03:25:14.043Z,73.20
2018-08-10T03:26:14.016Z,73.00
2018-08-10T03:28:06.946Z,72.91
2018-08-10T03:29:06.945Z,73.77
2018-08-10T03:30:59.855Z,73.10
2018-08-10T03:31:59.876Z,73.00
2018-08-10T03:33:52.808Z,73.00
2018-08-10T03:34:52.864Z,72.24
2018-08-10T03:36:45.717Z,72.43
2018-08-10T03:37:45.739Z,72.53
2018-08-10T03:39:38.670Z,72.43
2018-08-10T03:40:38.670Z,72.24
2018-08-10T03:42:31.581Z,72.37
2018-08-10T03:43:31.602Z,72.43
2018-08-10T03:45:24.532Z,72.72
2018-08-10T03:46:24.577Z,72.24
2018-08-10T03:48:17.465Z,72.53
2018-08-10T03:49:17.467Z,72.33
2018-08-10T03:51:10.376Z,72.05
2018-08-10T03:52:10.488Z,72.05
2018-08-10T03:54:03.326Z,72.24
2018-08-10T03:55:03.328Z,72.53
2018-08-10T03:56:56.238Z,72.33
2018-08-10T03:57:56.260Z,72.05
2018-08-10T03:59:49.189Z,72.81
2018-08-10T04:00:49.192Z,72.72
2018-08-10T04:02:42.102Z,72.63
2018-08-10T04:03:42.198Z,72.91
2018-08-10T04:05:35.053Z,73.39
2018-08-10T04:06:35.052Z,73.39
2018-08-10T04:08:27.981Z,72.72
2018-08-10T04:09:27.986Z,73.00
2018-08-10T04:11:20.897Z,73.39
2018-08-10T04:12:20.917Z,73.39
2018-08-10T04:14:13.851Z,73.20
2018-08-10T04:15:13.851Z,73.68
2018-08-10T04:17:06.763Z,73.20
2018-08-10T04:18:06.785Z,73.49
2018-08-10T04:19:59.714Z,73.83
2018-08-10T04:20:59.716Z,73.83
2018-08-10T04:22:52.628Z,73.65
2018-08-10T04:23:52.652Z,73.65
2018-08-10T04:25:45.596Z,74.41
2018-08-10T04:26:45.590Z,74.31
2018-08-10T04:28:38.516Z,74.22
2018-08-10T04:29:38.575Z,74.60
2018-08-10T04:31:31.434Z,74.69
2018-08-10T04:32:31.534Z,74.57
2018-08-10T04:34:24.374Z,74.41
2018-08-10T04:35:24.377Z,74.51
2018-08-10T04:37:17.283Z,74.02
2018-08-10T04:38:17.306Z,74.12
2018-08-10T04:40:10.238Z,74.31
2018-08-10T04:41:10.238Z,74.41
2018-08-10T04:43:03.147Z,74.22
2018-08-10T04:44:03.168Z,73.80
2018-08-10T04:45:56.100Z,74.31
2018-08-10T04:46:56.200Z,74.22
2018-08-10T04:48:49.009Z,73.41
2018-08-10T04:49:49.053Z,73.26
2018-08-10T04:51:41.960Z,73.55
2018-08-10T04:52:42.007Z,73.55
2018-08-10T04:54:34.893Z,73.07
2018-08-10T04:55:34.989Z,73.26
2018-08-10T04:57:27.801Z,72.91
2018-08-10T04:58:27.823Z,72.53
2018-08-10T05:00:20.754Z,72.14
2018-08-10T05:01:20.754Z,72.24
2018-08-10T05:03:13.665Z,72.14
2018-08-10T05:04:13.686Z,72.53
2018-08-10T05:06:06.616Z,71.95
2018-08-10T05:07:06.620Z,72.43
2018-08-10T05:08:59.533Z,71.47
2018-08-10T05:09:59.561Z,71.66
2018-08-10T05:11:52.488Z,72.24
2018-08-10T05:12:52.486Z,72.24
2018-08-10T05:14:45.415Z,71.95
2018-08-10T05:15:45.423Z,71.66
2018-08-10T05:17:38.329Z,72.24
2018-08-10T05:18:38.355Z,72.63
2018-08-10T05:20:31.281Z,72.05
2018-08-10T05:21:31.292Z,72.14
2018-08-10T05:23:24.189Z,72.05
2018-08-10T05:24:24.214Z,72.63
2018-08-10T05:26:17.144Z,72.91
2018-08-10T05:27:17.144Z,72.81
2018-08-10T05:29:10.055Z,73.10
2018-08-10T05:30:10.076Z,72.63
2018-08-10T05:32:03.011Z,72.63
2018-08-10T05:33:03.012Z,72.63
2018-08-10T05:34:56.084Z,72.91
2018-08-10T05:35:55.945Z,72.81
2018-08-10T05:37:48.856Z,73.00
2018-08-10T05:38:48.876Z,73.00
2018-08-10T05:40:41.808Z,72.63
2018-08-10T05:41:41.810Z,73.00
2018-08-10T05:43:34.717Z,71.95
2018-08-10T05:44:34.780Z,72.28
2018-08-10T05:46:27.714Z,72.28
2018-08-10T05:47:27.670Z,72.18
2018-08-10T05:49:20.582Z,72.37
2018-08-10T05:50:20.605Z,71.51
2018-08-10T05:52:13.538Z,71.41
2018-08-10T05:53:13.542Z,71.61
2018-08-10T05:55:06.469Z,72.08
2018-08-10T05:56:06.518Z,71.98
2018-08-10T05:57:59.382Z,72.47
2018-08-10T05:58:59.404Z,72.08
2018-08-10T06:00:52.356Z,71.70
2018-08-10T06:01:52.335Z,71.61
2018-08-10T06:03:45.370Z,71.31
2018-08-10T06:04:45.273Z,71.41
2018-08-10T06:06:38.203Z,71.22
2018-08-10T06:07:38.206Z,71.12
2018-08-10T06:09:31.120Z,70.52
2018-08-10T06:10:31.139Z,69.85
2018-08-10T06:12:24.076Z,68.29
2018-08-10T06:13:24.075Z,66.74
2018-08-10T06:15:17.011Z,64.28
2018-08-10T06:16:17.012Z,64.31
2018-08-10T06:18:09.932Z,62.09
2018-08-10T06:19:09.959Z,62.41
2018-08-10T06:21:02.892Z,60.90
2018-08-10T06:22:02.902Z,60.35
2018-08-10T06:23:55.833Z,58.88
2018-08-10T06:24:55.853Z,59.58
2018-08-10T06:26:48.782Z,58.36
2018-08-10T06:27:48.826Z,58.39
2018-08-10T06:29:41.703Z,55.90
2018-08-10T06:30:41.735Z,55.33
2018-08-10T06:32:34.670Z,54.00
2018-08-10T06:33:34.677Z,54.46
2018-08-10T06:35:27.613Z,54.29
2018-08-10T06:36:27.626Z,54.19
2018-08-10T06:38:20.541Z,53.25
2018-08-10T06:39:20.572Z,52.97
2018-08-10T06:41:13.512Z,52.34
2018-08-10T06:42:13.517Z,51.37
2018-08-10T06:44:06.441Z,50.89
2018-08-10T06:45:06.571Z,50.98
2018-08-10T06:46:59.411Z,50.28
2018-08-10T06:47:59.422Z,51.44
2018-08-10T06:49:52.344Z,51.25
2018-08-10T06:50:52.371Z,51.06
2018-08-10T06:52:45.324Z,51.81
2018-08-10T06:53:45.326Z,52.31
2018-08-10T06:55:38.340Z,51.81
2018-08-10T06:56:38.278Z,52.39
2018-08-10T06:58:31.204Z,52.48
2018-08-10T06:59:31.231Z,52.29
2018-08-10T07:01:24.230Z,52.48
2018-08-10T07:02:24.186Z,52.58
2018-08-10T07:04:17.110Z,52.09
2018-08-10T07:05:17.169Z,52.29
2018-08-10T07:07:10.095Z,52.36
2018-08-10T07:08:10.095Z,52.75
2018-08-10T07:10:03.021Z,53.47
2018-08-10T07:11:03.054Z,54.07
2018-08-10T07:12:56.003Z,54.62
2018-08-10T07:13:56.008Z,55.13
2018-08-10T07:15:48.969Z,54.55
2018-08-10T07:16:48.957Z,53.97
2018-08-10T07:18:41.885Z,54.46
2018-08-10T07:19:41.914Z,53.88
2018-08-10T07:21:34.855Z,54.36
2018-08-10T07:22:34.863Z,55.04
2018-08-10T07:24:27.789Z,54.46
2018-08-10T07:25:27.818Z,54.46
2018-08-10T07:27:20.758Z,53.11
2018-08-10T07:28:20.766Z,53.69
2018-08-10T07:30:13.692Z,53.66
2018-08-10T07:31:13.714Z,53.95
2018-08-10T07:33:06.654Z,54.82
2018-08-10T07:34:06.663Z,55.10
2018-08-10T07:35:59.581Z,54.14
2018-08-10T07:36:59.608Z,54.33
2018-08-10T07:38:52.556Z,54.82
2018-08-10T07:39:52.557Z,54.53
2018-08-10T07:41:45.503Z,55.08
2018-08-10T07:42:45.503Z,54.91
2018-08-10T07:44:38.424Z,55.40
2018-08-10T07:45:38.452Z,54.72
2018-08-10T07:47:31.385Z,54.05
2018-08-10T07:48:31.395Z,53.95
2018-08-10T07:50:24.311Z,53.95
2018-08-10T07:51:24.340Z,54.11
2018-08-10T07:53:17.275Z,54.69
2018-08-10T07:54:17.282Z,54.79
2018-08-10T07:56:10.203Z,54.21
2018-08-10T07:57:10.228Z,54.21
2018-08-10T07:59:03.198Z,52.37
2018-08-10T08:00:03.174Z,53.15
2018-08-10T08:01:56.118Z,53.34
2018-08-10T08:02:56.119Z,53.25
2018-08-10T08:04:49.035Z,54.60
2018-08-10T08:05:49.062Z,54.98
2018-08-10T08:07:41.999Z,55.10
2018-08-10T08:08:42.008Z,54.82
2018-08-10T08:10:34.947Z,53.78
2018-08-10T08:11:34.956Z,53.20
2018-08-10T08:13:27.897Z,52.45
2018-08-10T08:14:27.895Z,52.17
2018-08-10T08:16:20.814Z,50.81
2018-08-10T08:17:20.843Z,50.52
2018-08-10T08:19:13.776Z,49.85
2018-08-10T08:20:13.785Z,50.04
2018-08-10T08:22:06.729Z,49.46
2018-08-10T08:23:06.729Z,50.13
2018-08-10T08:24:59.652Z,50.81
2018-08-10T08:25:59.674Z,49.95
2018-08-10T08:27:52.609Z,49.68
2018-08-10T08:28:52.618Z,49.97
2018-08-10T08:30:45.530Z,49.02
2018-08-10T08:31:45.562Z,49.41
2018-08-10T08:33:38.504Z,46.30
2018-08-10T08:34:38.526Z,46.27
2018-08-10T08:36:31.424Z,46.56
2018-08-10T08:37:31.455Z,47.31
2018-08-10T08:39:24.386Z,48.95
2018-08-10T08:40:24.400Z,48.95
2018-08-10T08:42:17.332Z,49.73
2018-08-10T08:43:17.339Z,50.11
2018-08-10T08:45:10.256Z,49.63
2018-08-10T08:46:10.469Z,49.63
2018-08-10T08:48:03.220Z,49.17
2018-08-10T08:49:03.230Z,48.79
2018-08-10T08:50:56.147Z,46.85
2018-08-10T08:51:56.204Z,45.69
2018-08-10T08:53:49.151Z,46.95
2018-08-10T08:54:49.120Z,47.14
2018-08-10T08:56:42.033Z,48.59
2018-08-10T08:57:42.063Z,48.49
2018-08-10T08:59:34.997Z,47.45
2018-08-10T09:00:35.005Z,47.45
2018-08-10T09:02:27.938Z,46.97
2018-08-10T09:03:27.948Z,47.38
2018-08-10T09:05:20.864Z,47.19
2018-08-10T09:06:20.892Z,46.92
2018-08-10T09:08:13.830Z,45.95
2018-08-10T09:09:13.836Z,45.66
2018-08-10T09:11:06.763Z,45.47
2018-08-10T09:12:06.783Z,44.98
2018-08-10T09:13:59.728Z,46.03
2018-08-10T09:14:59.730Z,45.45
2018-08-10T09:16:52.652Z,46.88
2018-08-10T09:17:52.680Z,46.80
2018-08-10T09:19:45.617Z,47.00
2018-08-10T09:20:45.625Z,46.90
2018-08-10T09:22:38.562Z,46.90
2018-08-10T09:23:38.572Z,46.22
2018-08-10T09:25:31.486Z,45.14
2018-08-10T09:26:31.517Z,45.33
2018-08-10T09:28:24.454Z,45.72
2018-08-10T09:29:24.463Z,45.42
2018-08-10T09:31:17.377Z,45.35
2018-08-10T09:32:17.405Z,45.83
2018-08-10T09:34:10.341Z,44.77
2018-08-10T09:35:10.352Z,44.87
2018-08-10T09:37:03.270Z,44.67
2018-08-10T09:38:03.310Z,44.57
2018-08-10T09:39:56.236Z,45.83
2018-08-10T09:40:56.243Z,44.87
2018-08-10T09:42:49.190Z,44.50
2018-08-10T09:43:49.191Z,44.70
2018-08-10T09:45:42.111Z,45.28
2018-08-10T09:46:42.138Z,44.50
2018-08-10T09:48:35.079Z,44.81
2018-08-10T09:49:35.086Z,44.31
2018-08-10T09:51:28.007Z,43.65
2018-08-10T09:52:28.033Z,44.12
2018-08-10T09:54:20.972Z,43.27
2018-08-10T09:55:20.985Z,43.27
2018-08-10T09:57:13.899Z,43.27
2018-08-10T09:58:13.927Z,43.87
2018-08-10T10:00:06.863Z,43.65
2018-08-10T10:01:06.872Z,43.68
2018-08-10T10:02:59.809Z,42.90
2018-08-10T10:03:59.816Z,41.83
2018-08-10T10:05:52.730Z,43.55
2018-08-10T10:06:52.762Z,43.48
2018-08-10T10:08:45.697Z,43.29
2018-08-10T10:09:45.706Z,43.09
2018-08-10T10:11:38.626Z,42.61
2018-08-10T10:12:38.652Z,42.34
2018-08-10T10:14:31.590Z,41.56
2018-08-10T10:15:31.601Z,40.69
2018-08-10T10:17:24.526Z,40.40
2018-08-10T10:18:24.544Z,41.95
2018-08-10T10:20:17.484Z,41.47
2018-08-10T10:21:17.492Z,41.58
2018-08-10T10:23:10.438Z,40.71
2018-08-10T10:24:10.441Z,40.42
2018-08-10T10:26:03.363Z,39.55
2018-08-10T10:27:03.391Z,39.94
2018-08-10T10:28:56.333Z,39.26
2018-08-10T10:29:56.340Z,38.78
2018-08-10T10:31:49.261Z,39.92
2018-08-10T10:32:49.364Z,39.24
2018-08-10T10:34:42.230Z,39.72
2018-08-10T10:35:42.238Z,39.72
2018-08-10T10:37:35.159Z,40.40
2018-08-10T10:38:35.188Z,40.31
2018-08-10T10:40:28.130Z,40.52
2018-08-10T10:41:28.151Z,38.78
2018-08-10T10:43:21.087Z,37.82
2018-08-10T10:44:21.090Z,36.87
2018-08-10T10:46:14.014Z,35.80
2018-08-10T10:47:14.085Z,36.02
2018-08-10T10:49:06.992Z,34.66
2018-08-10T10:50:06.999Z,34.36
2018-08-10T10:51:59.962Z,34.27
2018-08-10T10:52:59.953Z,34.66
2018-08-10T10:54:52.890Z,34.36
2018-08-10T10:55:52.900Z,35.63
2018-08-10T10:57:45.821Z,34.56
2018-08-10T10:58:45.852Z,34.25
2018-08-10T11:00:38.804Z,34.95
2018-08-10T11:01:38.807Z,34.27
2018-08-10T11:03:31.751Z,32.50
2018-08-10T11:04:31.762Z,33.28
2018-08-10T11:06:24.691Z,33.46
2018-08-10T11:07:24.714Z,33.75
2018-08-10T11:09:17.663Z,34.25
2018-08-10T11:10:17.668Z,33.76
2018-08-10T11:12:10.597Z,33.76
2018-08-10T11:13:10.625Z,34.35
2018-08-10T11:15:03.568Z,35.30
2018-08-10T11:16:03.576Z,34.61
2018-08-10T11:17:56.534Z,34.61
2018-08-10T11:18:56.528Z,34.53
2018-08-10T11:20:49.478Z,33.26
2018-08-10T11:21:49.483Z,33.94
2018-08-10T11:23:42.433Z,34.62
2018-08-10T11:24:42.435Z,34.81
2018-08-10T11:26:35.365Z,35.49
2018-08-10T11:27:35.392Z,35.69
2018-08-10T11:29:28.342Z,35.40
2018-08-10T11:30:28.343Z,34.91
2018-08-10T11:32:21.273Z,35.40
2018-08-10T11:33:21.305Z,34.83
2018-08-10T11:35:14.243Z,35.71
2018-08-10T11:36:14.252Z,35.41
2018-08-10T11:38:07.177Z,35.24
2018-08-10T11:39:07.213Z,34.25
2018-08-10T11:41:00.154Z,32.70
2018-08-10T11:42:00.163Z,33.57
2018-08-10T11:43:53.115Z,33.28
2018-08-10T11:44:53.149Z,32.99
2018-08-10T11:46:46.041Z,32.89
2018-08-10T11:47:46.071Z,32.79
2018-08-10T11:49:39.021Z,32.52
2018-08-10T11:50:39.023Z,32.71
2018-08-10T11:52:32.014Z,32.89
2018-08-10T11:53:31.974Z,32.50
2018-08-10T11:55:24.925Z,32.99
2018-08-10T11:56:24.924Z,33.26
2018-08-10T11:58:17.854Z,33.09
2018-08-10T11:59:17.881Z,34.16
2018-08-10T12:01:10.823Z,33.18
2018-08-10T12:02:10.831Z,32.89
2018-08-10T12:04:03.780Z,33.76
2018-08-10T12:05:03.782Z,33.18
2018-08-10T12:06:56.702Z,32.91
2018-08-10T12:07:56.728Z,32.79
2018-08-10T12:09:49.668Z,32.29
2018-08-10T12:10:49.678Z,32.09
2018-08-10T12:12:42.609Z,32.46
2018-08-10T12:13:42.624Z,32.94
2018-08-10T12:15:35.564Z,34.22
2018-08-10T12:16:35.573Z,32.96
2018-08-10T12:18:28.491Z,32.59
2018-08-10T12:19:28.523Z,32.68
2018-08-10T12:21:21.462Z,32.31
2018-08-10T12:22:21.470Z,32.60
2018-08-10T12:24:14.394Z,32.41
2018-08-10T12:25:14.416Z,32.12
2018-08-10T12:27:07.360Z,31.53
2018-08-10T12:28:07.367Z,31.53
2018-08-10T12:30:00.310Z,31.53
2018-08-10T12:31:00.316Z,31.53
2018-08-10T12:32:53.239Z,31.44
2018-08-10T12:33:53.267Z,31.53
2018-08-10T12:35:46.209Z,31.53
2018-08-10T12:36:46.217Z,31.53
2018-08-10T12:38:39.139Z,31.53
2018-08-10T12:39:39.168Z,32.41
2018-08-10T12:41:32.119Z,32.23
2018-08-10T12:42:32.128Z,31.65
2018-08-10T12:44:25.056Z,31.94
2018-08-10T12:45:25.081Z,31.55
2018-08-10T12:47:18.026Z,29.79
2018-08-10T12:48:18.031Z,30.57
2018-08-10T12:50:10.985Z,31.05
2018-08-10T12:51:10.979Z,31.16
2018-08-10T12:53:04.109Z,29.40
2018-08-10T12:54:04.131Z,29.79
2018-08-10T12:55:57.082Z,29.68
2018-08-10T12:56:57.114Z,29.57
2018-08-10T12:58:50.048Z,30.13
2018-08-10T12:59:50.384Z,31.21
2018-08-10T13:01:42.982Z,30.44
2018-08-10T13:02:43.061Z,30.23
2018-08-10T13:04:35.911Z,30.42
2018-08-10T13:05:35.959Z,30.42
2018-08-10T13:07:28.923Z,30.69
2018-08-10T13:08:28.886Z,30.42
2018-08-10T13:10:21.835Z,31.39
2018-08-10T13:11:21.839Z,30.92
2018-08-10T13:13:14.766Z,30.82
2018-08-10T13:14:14.795Z,30.73
2018-08-10T13:16:07.743Z,31.10
2018-08-10T13:17:07.758Z,31.39
2018-08-10T13:19:01.594Z,32.57
2018-08-10T13:20:00.950Z,31.99
2018-08-10T13:21:53.909Z,31.32
2018-08-10T13:22:53.906Z,30.94
2018-08-10T13:24:46.866Z,30.45
2018-08-10T13:25:46.893Z,30.65
2018-08-10T13:27:39.829Z,30.47
2018-08-10T13:28:39.839Z,29.69
2018-08-10T13:30:32.776Z,29.88
2018-08-10T13:31:32.787Z,29.60
2018-08-10T13:33:25.705Z,30.00
2018-08-10T13:34:25.734Z,30.29
2018-08-10T13:36:18.680Z,29.11
2018-08-10T13:37:18.685Z,29.69
2018-08-10T13:39:11.606Z,29.69
2018-08-10T13:40:11.636Z,28.91
2018-08-10T13:42:04.626Z,29.68
2018-08-10T13:43:04.586Z,29.17
2018-08-10T13:44:57.513Z,29.85
2018-08-10T13:45:57.544Z,30.23
2018-08-10T13:47:50.477Z,30.41
2018-08-10T13:48:50.487Z,30.89
2018-08-10T13:50:43.427Z,31.59
2018-08-10T13:51:43.434Z,31.10
2018-08-10T13:53:36.354Z,30.32
2018-08-10T13:54:36.380Z,30.62
2018-08-10T13:56:29.320Z,31.10
2018-08-10T13:57:29.330Z,30.71
2018-08-10T13:59:22.251Z,30.73
2018-08-10T14:00:22.280Z,30.05
2018-08-10T14:02:15.235Z,28.50
2018-08-10T14:03:15.244Z,29.58
2018-08-10T14:05:08.189Z,27.54
2018-08-10T14:06:08.220Z,26.86
2018-08-10T14:08:01.136Z,27.25
2018-08-10T14:09:01.145Z,28.22
2018-08-10T14:10:54.088Z,27.62
2018-08-10T14:11:54.094Z,27.92
2018-08-10T14:13:47.015Z,27.91
2018-08-10T14:14:47.043Z,28.58
2018-08-10T14:16:39.988Z,29.16
2018-08-10T14:17:39.993Z,29.06
2018-08-10T14:19:32.917Z,28.50
2018-08-10T14:20:32.941Z,28.77
2018-08-10T14:22:25.887Z,28.59
2018-08-10T14:23:25.891Z,28.98
2018-08-10T14:25:18.815Z,29.10
2018-08-10T14:26:18.839Z,29.10
2018-08-10T14:28:11.783Z,28.13
2018-08-10T14:29:11.791Z,27.35
2018-08-10T14:31:04.738Z,28.02
2018-08-10T14:32:04.740Z,27.14
2018-08-10T14:33:57.685Z,28.30
2018-08-10T14:34:57.690Z,28.70
2018-08-10T14:36:50.633Z,28.41
2018-08-10T14:37:50.643Z,28.41
2018-08-10T14:39:43.569Z,28.13
2018-08-10T14:40:43.598Z,28.23
2018-08-10T14:42:36.547Z,27.84
2018-08-10T14:43:36.546Z,27.17
2018-08-10T14:45:29.472Z,26.87
2018-08-10T14:46:29.497Z,26.20
2018-08-10T14:48:22.445Z,26.39
2018-08-10T14:49:22.451Z,26.39
2018-08-10T14:51:15.391Z,26.29
2018-08-10T14:52:15.399Z,26.39
2018-08-10T14:54:08.320Z,26.49
2018-08-10T14:55:08.346Z,26.20
2018-08-10T14:57:01.283Z,26.49
2018-08-10T14:58:01.297Z,27.17
2018-08-10T14:59:54.215Z,26.20
2018-08-10T15:00:54.242Z,26.29
2018-08-10T15:02:47.185Z,26.40
2018-08-10T15:03:47.192Z,25.92
2018-08-10T15:05:40.111Z,25.14
2018-08-10T15:06:40.142Z,24.95
2018-08-10T15:08:33.080Z,24.35
2018-08-10T15:09:33.092Z,25.13
2018-08-10T15:11:26.028Z,25.13
2018-08-10T15:12:26.196Z,25.02
2018-08-10T15:14:18.957Z,26.09
2018-08-10T15:15:18.987Z,26.38
2018-08-10T15:17:11.926Z,26.39
2018-08-10T15:18:11.991Z,26.49
2018-08-10T15:20:04.858Z,26.11
2018-08-10T15:21:04.887Z,25.43
2018-08-10T15:22:57.831Z,25.73
2018-08-10T15:23:57.835Z,24.95
2018-08-10T15:25:50.757Z,24.87
2018-08-10T15:26:50.784Z,25.04
2018-08-10T15:28:43.727Z,25.05
2018-08-10T15:29:43.737Z,24.96
2018-08-10T15:31:36.685Z,24.87
2018-08-10T15:32:36.686Z,25.24
2018-08-10T15:34:29.614Z,25.24
2018-08-10T15:35:29.637Z,25.04
2018-08-10T15:37:22.589Z,25.24
2018-08-10T15:38:22.648Z,25.14
2018-08-10T15:40:15.521Z,25.14
2018-08-10T15:41:15.547Z,25.14
2018-08-10T15:43:08.541Z,24.96
2018-08-10T15:44:08.498Z,25.05
2018-08-10T15:46:01.452Z,25.25
2018-08-10T15:47:01.458Z,25.15
2018-08-10T15:48:54.398Z,25.07
2018-08-10T15:49:54.445Z,24.78
2018-08-10T15:51:47.349Z,24.88
2018-08-10T15:52:47.356Z,25.16
2018-08-10T15:54:40.281Z,25.15
2018-08-10T15:55:40.310Z,24.57
2018-08-10T15:57:33.258Z,24.87
2018-08-10T15:58:33.262Z,24.77
2018-08-10T16:00:26.187Z,24.77
2018-08-10T16:01:26.212Z,25.07
2018-08-10T16:03:19.160Z,25.36
2018-08-10T16:04:19.165Z,25.07
2018-08-10T16:06:12.142Z,24.29
2018-08-10T16:07:12.114Z,24.78
2018-08-10T16:09:05.065Z,24.10
2018-08-10T16:10:05.075Z,24.18
2018-08-10T16:11:58.024Z,24.28
2018-08-10T16:12:58.038Z,24.18
2018-08-10T16:14:50.955Z,24.18
2018-08-10T16:15:50.984Z,25.15
2018-08-10T16:17:43.932Z,24.67
2018-08-10T16:18:43.935Z,24.77
2018-08-10T16:20:36.866Z,24.96
2018-08-10T16:21:36.887Z,25.34
2018-08-10T16:23:29.830Z,25.24
2018-08-10T16:24:29.875Z,25.04
2018-08-10T16:26:22.994Z,25.04
2018-08-10T16:27:23.023Z,25.24
2018-08-10T16:29:15.969Z,25.24
2018-08-10T16:30:15.977Z,26.00
2018-08-10T16:32:08.926Z,25.99
2018-08-10T16:33:08.926Z,26.18
2018-08-10T16:35:01.855Z,26.38
2018-08-10T16:36:01.925Z,26.09
2018-08-10T16:37:54.825Z,26.37
2018-08-10T16:38:54.829Z,26.95
2018-08-10T16:40:47.754Z,27.04
2018-08-10T16:41:47.777Z,27.32
2018-08-10T16:43:40.715Z,27.72
2018-08-10T16:44:40.735Z,27.24
2018-08-10T16:46:33.644Z,27.72
2018-08-10T16:47:33.671Z,27.72
2018-08-10T16:49:26.619Z,27.61
2018-08-10T16:50:26.628Z,27.51
2018-08-10T16:52:19.550Z,27.61
2018-08-10T16:53:19.577Z,27.32
2018-08-10T16:55:12.525Z,27.91
2018-08-10T16:56:12.525Z,27.32
2018-08-10T16:58:05.474Z,27.61
2018-08-10T16:59:05.474Z,27.03
2018-08-10T17:00:58.396Z,27.42
2018-08-10T17:01:58.424Z,27.32
2018-08-10T17:03:51.362Z,27.61
2018-08-10T17:04:51.372Z,26.85
2018-08-10T17:06:44.293Z,25.87
2018-08-10T17:07:44.322Z,25.87
2018-08-10T17:09:37.265Z,26.06
2018-08-10T17:10:37.267Z,25.88
2018-08-10T17:12:30.213Z,25.88
2018-08-10T17:13:30.243Z,26.56
2018-08-10T17:15:23.182Z,26.27
2018-08-10T17:16:23.192Z,26.45
2018-08-10T17:18:16.128Z,26.84
2018-08-10T17:19:16.134Z,26.35
2018-08-10T17:21:09.052Z,27.32
2018-08-10T17:22:09.083Z,27.22
2018-08-10T17:24:02.020Z,27.21
2018-08-10T17:25:02.029Z,27.13
2018-08-10T17:26:54.946Z,27.22
2018-08-10T17:27:54.974Z,27.22
2018-08-10T17:29:47.919Z,27.42
2018-08-10T17:30:47.922Z,27.51
2018-08-10T17:32:40.842Z,27.61
2018-08-10T17:33:40.869Z,27.21
2018-08-10T17:35:33.810Z,27.79
2018-08-10T17:36:33.824Z,28.47
2018-08-10T17:38:26.755Z,27.79
2018-08-10T17:39:26.762Z,27.98
2018-08-10T17:41:19.681Z,28.07
2018-08-10T17:42:19.707Z,28.45
2018-08-10T17:44:12.657Z,28.75
2018-08-10T17:45:12.734Z,29.13
2018-08-10T17:47:05.584Z,29.32
2018-08-10T17:48:05.609Z,29.22
2018-08-10T17:49:58.574Z,29.52
2018-08-10T17:50:58.595Z,29.71
2018-08-10T17:52:51.525Z,29.43
2018-08-10T17:53:52.322Z,29.33
2018-08-10T17:55:44.530Z,29.33
2018-08-10T17:56:44.505Z,29.33
2018-08-10T17:58:37.440Z,29.50
2018-08-10T17:59:37.428Z,29.50
2018-08-10T18:01:30.361Z,30.08
2018-08-10T18:02:30.372Z,30.28
2018-08-10T18:04:23.313Z,29.90
2018-08-10T18:05:23.321Z,30.38
2018-08-10T18:07:16.242Z,30.75
2018-08-10T18:08:16.267Z,30.36
2018-08-10T18:10:09.213Z,31.05
2018-08-10T18:11:09.215Z,30.76
2018-08-10T18:13:02.141Z,30.57
2018-08-10T18:14:02.179Z,30.96
2018-08-10T18:15:55.158Z,30.31
2018-08-10T18:16:55.140Z,30.02
2018-08-10T18:18:48.082Z,29.53
2018-08-10T18:19:48.083Z,29.55
2018-08-10T18:21:41.004Z,28.69
2018-08-10T18:22:41.039Z,28.79
2018-08-10T18:24:34.037Z,28.32
2018-08-10T18:25:33.980Z,27.35
2018-08-10T18:27:26.906Z,28.11
2018-08-10T18:28:26.931Z,27.92
2018-08-10T18:30:19.901Z,28.40
2018-08-10T18:31:19.900Z,28.68
2018-08-10T18:33:12.836Z,29.63